sensor_id;sensor_type;location;lat;lon;timestamp;pressure;altitude;pressure_sealevel;temperature;humidity
57894;BME280;43710;47.460;19.034;2024-03-22T05:03:20;100772.53;;;12.87;73.56
57894;BME280;43710;47.460;19.034;2024-03-22T05:06:22;100772.53;;;12.87;73.56
57894;BME280;43710;47.460;19.034;2024-03-22T05:09:23;100783.25;;;12.39;74.30
57894;BME280;43710;47.460;19.034;2024-03-22T05:12:25;100786.44;;;12.41;91.55
57894;BME280;43710;47.460;19.034;2024-03-22T05:15:26;100782.25;;;12.30;76.44
57894;BME280;43710;47.460;19.034;2024-03-22T05:18:28;100784.47;;;12.52;94.57
57894;BME280;43710;47.460;19.034;2024-03-22T05:21:30;100782.63;;;12.48;78.16
57894;BME280;43710;47.460;19.034;2024-03-22T05:24:31;100783.34;;;12.58;95.41
57894;BME280;43710;47.460;19.034;2024-03-22T05:27:32;100786.22;;;12.67;96.95
57894;BME280;43710;47.460;19.034;2024-03-22T05:30:34;100785.44;;;12.61;84.66
57894;BME280;43710;47.460;19.034;2024-03-22T05:33:35;100791.59;;;12.67;76.97
57894;BME280;43710;47.460;19.034;2024-03-22T05:36:37;100786.44;;;12.70;77.48
57894;BME280;43710;47.460;19.034;2024-03-22T05:39:38;100788.63;;;12.68;81.52
57894;BME280;43710;47.460;19.034;2024-03-22T05:42:42;100789.91;;;12.76;92.38
57894;BME280;43710;47.460;19.034;2024-03-22T05:45:43;100786.75;;;12.93;100.00
57894;BME280;43710;47.460;19.034;2024-03-22T05:48:44;100782.28;;;12.83;80.89
57894;BME280;43710;47.460;19.034;2024-03-22T05:51:45;100766.72;;;13.04;95.97
57894;BME280;43710;47.460;19.034;2024-03-22T05:54:47;100773.06;;;13.13;77.31
57894;BME280;43710;47.460;19.034;2024-03-22T05:57:49;100791.00;;;12.99;75.22
57894;BME280;43710;47.460;19.034;2024-03-22T06:00:50;100785.06;;;13.02;84.63
57894;BME280;43710;47.460;19.034;2024-03-22T06:03:52;100788.41;;;13.13;94.98
57894;BME280;43710;47.460;19.034;2024-03-22T06:06:53;100782.91;;;13.28;93.01
57894;BME280;43710;47.460;19.034;2024-03-22T06:09:55;100776.09;;;13.31;94.13
57894;BME280;43710;47.460;19.034;2024-03-22T06:12:56;100779.53;;;13.36;94.24
57894;BME280;43710;47.460;19.034;2024-03-22T06:15:58;100781.47;;;13.74;100.00
57894;BME280;43710;47.460;19.034;2024-03-22T06:18:59;100781.25;;;13.70;76.54
57894;BME280;43710;47.460;19.034;2024-03-22T06:22:01;100787.00;;;13.63;80.65
57894;BME280;43710;47.460;19.034;2024-03-22T06:25:04;100777.75;;;13.70;84.10
57894;BME280;43710;47.460;19.034;2024-03-22T06:28:05;100777.25;;;13.68;81.10
57894;BME280;43710;47.460;19.034;2024-03-22T06:31:07;100777.34;;;13.81;88.52
57894;BME280;43710;47.460;19.034;2024-03-22T06:34:09;100778.41;;;13.80;76.49
57894;BME280;43710;47.460;19.034;2024-03-22T06:37:10;100773.84;;;13.81;72.87
57894;BME280;43710;47.460;19.034;2024-03-22T06:40:12;100777.81;;;13.83;81.07
57894;BME280;43710;47.460;19.034;2024-03-22T06:43:13;100786.44;;;13.85;78.17
57894;BME280;43710;47.460;19.034;2024-03-22T06:46:14;100787.75;;;13.88;75.27
57894;BME280;43710;47.460;19.034;2024-03-22T06:49:16;100780.00;;;14.00;79.66
57894;BME280;43710;47.460;19.034;2024-03-22T06:52:18;100775.38;;;14.20;87.37
57894;BME280;43710;47.460;19.034;2024-03-22T06:55:21;100780.97;;;14.23;72.31
57894;BME280;43710;47.460;19.034;2024-03-22T06:58:23;100778.22;;;14.28;72.11
57894;BME280;43710;47.460;19.034;2024-03-22T07:01:25;100783.41;;;14.25;71.22
57894;BME280;43710;47.460;19.034;2024-03-22T07:04:28;100788.28;;;14.23;72.54
57894;BME280;43710;47.460;19.034;2024-03-22T07:07:30;100785.19;;;14.29;80.15
57894;BME280;43710;47.460;19.034;2024-03-22T07:10:31;100792.47;;;14.48;75.70
57894;BME280;43710;47.460;19.034;2024-03-22T07:13:33;100796.03;;;14.43;70.38
57894;BME280;43710;47.460;19.034;2024-03-22T07:16:35;100797.44;;;14.41;68.51
57894;BME280;43710;47.460;19.034;2024-03-22T07:19:38;100803.84;;;14.45;77.05
57894;BME280;43710;47.460;19.034;2024-03-22T07:22:39;100794.62;;;14.65;78.37
57894;BME280;43710;47.460;19.034;2024-03-22T07:25:40;100790.56;;;14.81;82.46
57894;BME280;43710;47.460;19.034;2024-03-22T07:28:47;100800.84;;;14.79;71.63
57894;BME280;43710;47.460;19.034;2024-03-22T07:31:48;100802.56;;;15.02;79.13
57894;BME280;43710;47.460;19.034;2024-03-22T07:34:49;100794.44;;;15.02;67.15
57894;BME280;43710;47.460;19.034;2024-03-22T07:37:51;100802.16;;;15.09;86.18
57894;BME280;43710;47.460;19.034;2024-03-22T07:40:52;100798.06;;;15.12;82.79
57894;BME280;43710;47.460;19.034;2024-03-22T07:43:54;100795.47;;;15.07;69.51
57894;BME280;43710;47.460;19.034;2024-03-22T07:46:55;100797.66;;;15.04;71.09
57894;BME280;43710;47.460;19.034;2024-03-22T07:49:56;100807.88;;;14.94;66.80
57894;BME280;43710;47.460;19.034;2024-03-22T07:52:58;100807.75;;;14.85;67.41
57894;BME280;43710;47.460;19.034;2024-03-22T07:56:01;100807.75;;;14.85;67.89
57894;BME280;43710;47.460;19.034;2024-03-22T07:59:02;100810.97;;;14.87;66.79
57894;BME280;43710;47.460;19.034;2024-03-22T08:02:03;100818.94;;;14.92;66.31
57894;BME280;43710;47.460;19.034;2024-03-22T08:05:06;100816.37;;;15.01;68.56
57894;BME280;43710;47.460;19.034;2024-03-22T08:08:07;100823.34;;;15.02;65.58
57894;BME280;43710;47.460;19.034;2024-03-22T08:11:09;100822.16;;;15.08;66.60
57894;BME280;43710;47.460;19.034;2024-03-22T08:14:10;100831.38;;;15.07;64.86
57894;BME280;43710;47.460;19.034;2024-03-22T08:17:11;100826.19;;;15.11;65.98
57894;BME280;43710;47.460;19.034;2024-03-22T08:20:13;100829.16;;;15.23;75.10
57894;BME280;43710;47.460;19.034;2024-03-22T08:23:14;100829.25;;;15.45;71.28
57894;BME280;43710;47.460;19.034;2024-03-22T08:26:15;100829.56;;;15.44;64.82
57894;BME280;43710;47.460;19.034;2024-03-22T08:29:17;100830.47;;;15.39;64.36
57894;BME280;43710;47.460;19.034;2024-03-22T08:32:18;100831.06;;;15.36;62.74
57894;BME280;43710;47.460;19.034;2024-03-22T08:35:20;100824.56;;;15.51;70.18
57894;BME280;43710;47.460;19.034;2024-03-22T08:38:21;100821.25;;;15.68;63.00
57894;BME280;43710;47.460;19.034;2024-03-22T08:41:23;100820.34;;;15.59;60.59
57894;BME280;43710;47.460;19.034;2024-03-22T08:44:24;100821.72;;;15.56;62.21
57894;BME280;43710;47.460;19.034;2024-03-22T08:47:26;100814.13;;;15.72;69.11
57894;BME280;43710;47.460;19.034;2024-03-22T08:50:27;100824.72;;;15.82;61.48
57894;BME280;43710;47.460;19.034;2024-03-22T08:53:29;100816.41;;;15.79;60.13
57894;BME280;43710;47.460;19.034;2024-03-22T08:56:30;100806.13;;;15.81;60.21
57894;BME280;43710;47.460;19.034;2024-03-22T08:59:31;100808.97;;;15.98;61.61
57894;BME280;43710;47.460;19.034;2024-03-22T09:02:33;100802.78;;;16.20;69.47
57894;BME280;43710;47.460;19.034;2024-03-22T09:05:35;100814.94;;;16.31;60.86
57894;BME280;43710;47.460;19.034;2024-03-22T09:08:37;100805.22;;;16.30;63.93
57894;BME280;43710;47.460;19.034;2024-03-22T09:11:38;100804.00;;;16.36;57.77
57894;BME280;43710;47.460;19.034;2024-03-22T09:14:40;100797.28;;;16.34;57.50
57894;BME280;43710;47.460;19.034;2024-03-22T09:17:42;100803.00;;;16.32;58.48
57894;BME280;43710;47.460;19.034;2024-03-22T09:20:43;100798.44;;;16.41;60.15
57894;BME280;43710;47.460;19.034;2024-03-22T09:23:45;100804.91;;;16.32;57.38
57894;BME280;43710;47.460;19.034;2024-03-22T09:26:46;100793.00;;;16.33;60.56
57894;BME280;43710;47.460;19.034;2024-03-22T09:29:48;100792.31;;;16.27;57.42
57894;BME280;43710;47.460;19.034;2024-03-22T09:32:50;100785.69;;;16.11;58.25
57894;BME280;43710;47.460;19.034;2024-03-22T09:35:53;100785.31;;;16.26;59.52
57894;BME280;43710;47.460;19.034;2024-03-22T09:38:54;100783.25;;;16.32;57.45
57894;BME280;43710;47.460;19.034;2024-03-22T09:41:57;100782.28;;;16.28;58.37
57894;BME280;43710;47.460;19.034;2024-03-22T09:44:59;100777.44;;;16.16;58.04
57894;BME280;43710;47.460;19.034;2024-03-22T09:48:01;100775.72;;;16.42;60.07
57894;BME280;43710;47.460;19.034;2024-03-22T09:51:03;100777.16;;;16.49;63.18
57894;BME280;43710;47.460;19.034;2024-03-22T09:54:05;100777.03;;;16.54;58.58
57894;BME280;43710;47.460;19.034;2024-03-22T09:57:13;100785.34;;;16.57;57.79
57894;BME280;43710;47.460;19.034;2024-03-22T10:00:17;100771.63;;;16.54;59.51
57894;BME280;43710;47.460;19.034;2024-03-22T10:03:20;100772.66;;;16.66;58.33
57894;BME280;43710;47.460;19.034;2024-03-22T10:06:22;100775.31;;;16.58;58.06
57894;BME280;43710;47.460;19.034;2024-03-22T10:09:30;100766.72;;;16.56;57.11
57894;BME280;43710;47.460;19.034;2024-03-22T10:12:32;100764.56;;;16.44;57.21
57894;BME280;43710;47.460;19.034;2024-03-22T10:15:34;100766.50;;;16.52;59.21
57894;BME280;43710;47.460;19.034;2024-03-22T10:18:35;100763.06;;;16.60;57.67
57894;BME280;43710;47.460;19.034;2024-03-22T10:21:36;100757.31;;;16.62;57.90
57894;BME280;43710;47.460;19.034;2024-03-22T10:24:38;100755.84;;;16.78;63.20
57894;BME280;43710;47.460;19.034;2024-03-22T10:27:40;100751.87;;;16.84;57.07
57894;BME280;43710;47.460;19.034;2024-03-22T10:30:41;100753.94;;;16.79;58.18
57894;BME280;43710;47.460;19.034;2024-03-22T10:33:45;100746.63;;;16.79;56.42
57894;BME280;43710;47.460;19.034;2024-03-22T10:36:46;100754.12;;;16.82;59.33
57894;BME280;43710;47.460;19.034;2024-03-22T10:39:50;100745.50;;;16.80;57.19
57894;BME280;43710;47.460;19.034;2024-03-22T10:42:51;100745.87;;;16.96;59.26
57894;BME280;43710;47.460;19.034;2024-03-22T10:45:56;100751.63;;;17.03;56.31
57894;BME280;43710;47.460;19.034;2024-03-22T10:49:02;100739.91;;;17.25;59.19
57894;BME280;43710;47.460;19.034;2024-03-22T10:52:07;100740.53;;;17.31;58.13
57894;BME280;43710;47.460;19.034;2024-03-22T10:55:19;100742.16;;;17.32;53.96
57894;BME280;43710;47.460;19.034;2024-03-22T10:58:22;100746.13;;;17.26;53.36
57894;BME280;43710;47.460;19.034;2024-03-22T11:01:26;100743.41;;;17.26;52.58
57894;BME280;43710;47.460;19.034;2024-03-22T11:04:30;100741.00;;;17.16;52.07
57894;BME280;43710;47.460;19.034;2024-03-22T11:07:31;100729.19;;;17.11;53.19
57894;BME280;43710;47.460;19.034;2024-03-22T11:10:34;100732.88;;;17.24;54.00
57894;BME280;43710;47.460;19.034;2024-03-22T11:13:39;100725.06;;;17.31;51.49
57894;BME280;43710;47.460;19.034;2024-03-22T11:16:44;100727.63;;;17.28;50.20
57894;BME280;43710;47.460;19.034;2024-03-22T11:19:46;100727.94;;;17.26;52.63
57894;BME280;43710;47.460;19.034;2024-03-22T11:22:48;100725.37;;;17.21;48.54
57894;BME280;43710;47.460;19.034;2024-03-22T11:25:49;100725.53;;;17.25;47.14
57894;BME280;43710;47.460;19.034;2024-03-22T11:28:51;100723.97;;;17.32;48.61
57894;BME280;43710;47.460;19.034;2024-03-22T11:31:52;100714.22;;;17.31;47.03
57894;BME280;43710;47.460;19.034;2024-03-22T11:34:53;100712.97;;;17.29;47.96
57894;BME280;43710;47.460;19.034;2024-03-22T11:37:55;100704.66;;;17.17;48.46
57894;BME280;43710;47.460;19.034;2024-03-22T11:40:59;100709.91;;;17.22;46.66
57894;BME280;43710;47.460;19.034;2024-03-22T11:44:02;100701.97;;;17.34;47.41
57894;BME280;43710;47.460;19.034;2024-03-22T11:47:04;100701.19;;;17.42;45.00
57894;BME280;43710;47.460;19.034;2024-03-22T11:50:06;100703.72;;;17.47;45.30
57894;BME280;43710;47.460;19.034;2024-03-22T11:53:08;100703.41;;;17.57;45.32
57894;BME280;43710;47.460;19.034;2024-03-22T11:56:09;100692.25;;;17.50;46.70
57894;BME280;43710;47.460;19.034;2024-03-22T11:59:10;100686.50;;;17.60;47.28
57894;BME280;43710;47.460;19.034;2024-03-22T12:02:12;100690.84;;;17.61;44.28
57894;BME280;43710;47.460;19.034;2024-03-22T12:05:14;100686.66;;;17.73;44.27
57894;BME280;43710;47.460;19.034;2024-03-22T12:08:17;100686.81;;;17.68;44.41
57894;BME280;43710;47.460;19.034;2024-03-22T12:11:19;100678.53;;;17.64;45.42
57894;BME280;43710;47.460;19.034;2024-03-22T12:14:20;100667.19;;;17.71;45.57
57894;BME280;43710;47.460;19.034;2024-03-22T12:17:21;100667.69;;;17.64;46.65
57894;BME280;43710;47.460;19.034;2024-03-22T12:20:23;100663.06;;;17.65;47.21
57894;BME280;43710;47.460;19.034;2024-03-22T12:23:24;100667.41;;;17.48;46.81
57894;BME280;43710;47.460;19.034;2024-03-22T12:26:26;100662.59;;;17.36;47.49
57894;BME280;43710;47.460;19.034;2024-03-22T12:29:27;100666.91;;;17.37;47.99
57894;BME280;43710;47.460;19.034;2024-03-22T12:32:29;100665.59;;;17.35;47.98
57894;BME280;43710;47.460;19.034;2024-03-22T12:35:30;100653.81;;;17.31;48.21
57894;BME280;43710;47.460;19.034;2024-03-22T12:38:33;100662.12;;;17.34;48.80
57894;BME280;43710;47.460;19.034;2024-03-22T12:41:35;100663.25;;;17.42;50.07
57894;BME280;43710;47.460;19.034;2024-03-22T12:44:37;100664.84;;;17.43;49.14
57894;BME280;43710;47.460;19.034;2024-03-22T12:47:38;100651.13;;;17.48;49.59
57894;BME280;43710;47.460;19.034;2024-03-22T12:50:39;100646.66;;;17.44;49.28
57894;BME280;43710;47.460;19.034;2024-03-22T12:53:41;100639.97;;;17.50;49.03
57894;BME280;43710;47.460;19.034;2024-03-22T12:56:43;100637.56;;;17.57;48.89
57894;BME280;43710;47.460;19.034;2024-03-22T12:59:44;100630.25;;;17.49;47.57
57894;BME280;43710;47.460;19.034;2024-03-22T13:02:48;100636.91;;;17.51;48.62
57894;BME280;43710;47.460;19.034;2024-03-22T13:05:49;100621.78;;;17.42;48.80
57894;BME280;43710;47.460;19.034;2024-03-22T13:08:50;100615.88;;;17.31;49.06
57894;BME280;43710;47.460;19.034;2024-03-22T13:11:52;100612.69;;;17.37;47.83
57894;BME280;43710;47.460;19.034;2024-03-22T13:14:54;100608.56;;;17.31;48.49
57894;BME280;43710;47.460;19.034;2024-03-22T13:17:56;100618.28;;;17.32;48.30
57894;BME280;43710;47.460;19.034;2024-03-22T13:20:57;100602.69;;;17.29;48.97
57894;BME280;43710;47.460;19.034;2024-03-22T13:23:59;100600.91;;;17.33;48.97
57894;BME280;43710;47.460;19.034;2024-03-22T13:27:00;100599.31;;;17.32;48.59
57894;BME280;43710;47.460;19.034;2024-03-22T13:30:02;100593.25;;;17.27;50.38
57894;BME280;43710;47.460;19.034;2024-03-22T13:33:04;100588.34;;;17.29;49.43
57894;BME280;43710;47.460;19.034;2024-03-22T13:36:05;100580.84;;;17.17;50.28
57894;BME280;43710;47.460;19.034;2024-03-22T13:39:06;100575.72;;;17.24;50.09
57894;BME280;43710;47.460;19.034;2024-03-22T13:42:11;100578.25;;;17.38;50.03
57894;BME280;43710;47.460;19.034;2024-03-22T13:45:13;100582.87;;;17.37;49.50
57894;BME280;43710;47.460;19.034;2024-03-22T13:48:14;100567.41;;;17.38;49.38
57894;BME280;43710;47.460;19.034;2024-03-22T13:51:16;100571.59;;;17.18;50.67
57894;BME280;43710;47.460;19.034;2024-03-22T13:54:17;100562.06;;;17.12;52.16
57894;BME280;43710;47.460;19.034;2024-03-22T13:57:18;100558.84;;;17.10;49.49
57894;BME280;43710;47.460;19.034;2024-03-22T14:00:20;100557.09;;;17.23;50.75
57894;BME280;43710;47.460;19.034;2024-03-22T14:03:21;100563.47;;;17.35;49.98
57894;BME280;43710;47.460;19.034;2024-03-22T14:06:23;100561.34;;;17.50;47.57
57894;BME280;43710;47.460;19.034;2024-03-22T14:09:24;100559.13;;;17.43;46.06
57894;BME280;43710;47.460;19.034;2024-03-22T14:12:27;100558.50;;;17.55;48.92
57894;BME280;43710;47.460;19.034;2024-03-22T14:15:28;100541.87;;;17.56;46.42
57894;BME280;43710;47.460;19.034;2024-03-22T14:18:33;100543.62;;;17.61;47.90
57894;BME280;43710;47.460;19.034;2024-03-22T14:21:35;100538.37;;;17.56;46.94
57894;BME280;43710;47.460;19.034;2024-03-22T14:24:36;100545.75;;;17.47;46.84
57894;BME280;43710;47.460;19.034;2024-03-22T14:27:38;100533.62;;;17.44;48.46
57894;BME280;43710;47.460;19.034;2024-03-22T14:30:39;100530.91;;;17.44;48.73
57894;BME280;43710;47.460;19.034;2024-03-22T14:33:41;100529.97;;;17.40;46.61
57894;BME280;43710;47.460;19.034;2024-03-22T14:36:44;100530.75;;;17.41;47.12
57894;BME280;43710;47.460;19.034;2024-03-22T14:39:45;100526.16;;;17.24;46.65
57894;BME280;43710;47.460;19.034;2024-03-22T14:42:47;100519.00;;;17.28;46.45
57894;BME280;43710;47.460;19.034;2024-03-22T14:45:48;100525.34;;;17.41;46.88
57894;BME280;43710;47.460;19.034;2024-03-22T14:48:50;100515.00;;;17.34;46.09
57894;BME280;43710;47.460;19.034;2024-03-22T14:51:52;100505.13;;;17.29;46.01
57894;BME280;43710;47.460;19.034;2024-03-22T14:54:53;100510.56;;;17.29;45.85
57894;BME280;43710;47.460;19.034;2024-03-22T14:57:55;100503.06;;;17.26;45.90
57894;BME280;43710;47.460;19.034;2024-03-22T15:01:00;100497.00;;;17.29;45.86
57894;BME280;43710;47.460;19.034;2024-03-22T15:04:02;100503.88;;;17.18;44.14
57894;BME280;43710;47.460;19.034;2024-03-22T15:07:03;100500.50;;;17.21;44.72
57894;BME280;43710;47.460;19.034;2024-03-22T15:10:05;100501.16;;;17.18;42.77
57894;BME280;43710;47.460;19.034;2024-03-22T15:13:06;100504.34;;;17.20;42.43
57894;BME280;43710;47.460;19.034;2024-03-22T15:16:08;100502.47;;;17.12;41.17
57894;BME280;43710;47.460;19.034;2024-03-22T15:19:09;100497.34;;;17.19;41.27
57894;BME280;43710;47.460;19.034;2024-03-22T15:22:11;100494.00;;;17.13;42.02
57894;BME280;43710;47.460;19.034;2024-03-22T15:25:12;100499.75;;;17.12;42.36
57894;BME280;43710;47.460;19.034;2024-03-22T15:28:14;100490.19;;;17.06;42.28
57894;BME280;43710;47.460;19.034;2024-03-22T15:31:15;100490.50;;;17.04;43.31
57894;BME280;43710;47.460;19.034;2024-03-22T15:34:17;100490.19;;;17.06;44.47
57894;BME280;43710;47.460;19.034;2024-03-22T15:37:18;100492.91;;;17.06;42.99
57894;BME280;43710;47.460;19.034;2024-03-22T15:40:20;100488.75;;;16.91;42.62
57894;BME280;43710;47.460;19.034;2024-03-22T15:43:21;100492.09;;;16.88;43.17
57894;BME280;43710;47.460;19.034;2024-03-22T15:46:22;100485.09;;;16.87;43.45
57894;BME280;43710;47.460;19.034;2024-03-22T15:49:24;100491.66;;;16.86;43.44
57894;BME280;43710;47.460;19.034;2024-03-22T15:52:25;100489.25;;;16.84;42.89
57894;BME280;43710;47.460;19.034;2024-03-22T15:55:27;100482.25;;;16.92;43.68
57894;BME280;43710;47.460;19.034;2024-03-22T15:58:31;100487.03;;;16.86;45.08
57894;BME280;43710;47.460;19.034;2024-03-22T16:01:32;100481.75;;;16.81;42.49
57894;BME280;43710;47.460;19.034;2024-03-22T16:04:34;100480.81;;;16.77;43.32
57894;BME280;43710;47.460;19.034;2024-03-22T16:07:35;100482.69;;;16.68;42.07
57894;BME280;43710;47.460;19.034;2024-03-22T16:10:37;100478.88;;;16.69;43.05
57894;BME280;43710;47.460;19.034;2024-03-22T16:13:38;100479.69;;;16.70;42.85
57894;BME280;43710;47.460;19.034;2024-03-22T16:16:40;100474.56;;;16.68;43.85
57894;BME280;43710;47.460;19.034;2024-03-22T16:19:42;100473.12;;;16.62;43.07
57894;BME280;43710;47.460;19.034;2024-03-22T16:22:43;100470.91;;;16.64;44.27
57894;BME280;43710;47.460;19.034;2024-03-22T16:25:45;100472.50;;;16.65;42.33
57894;BME280;43710;47.460;19.034;2024-03-22T16:28:46;100477.44;;;16.63;43.14
57894;BME280;43710;47.460;19.034;2024-03-22T16:31:47;100472.03;;;16.63;43.04
57894;BME280;43710;47.460;19.034;2024-03-22T16:34:49;100487.16;;;16.64;42.65
57894;BME280;43710;47.460;19.034;2024-03-22T16:37:50;100483.31;;;16.48;42.96
57894;BME280;43710;47.460;19.034;2024-03-22T16:40:52;100483.94;;;16.36;42.47
57894;BME280;43710;47.460;19.034;2024-03-22T16:43:53;100488.22;;;16.28;42.52
57894;BME280;43710;47.460;19.034;2024-03-22T16:46:55;100484.09;;;16.31;42.77
57894;BME280;43710;47.460;19.034;2024-03-22T16:49:57;100483.75;;;16.32;43.06
57894;BME280;43710;47.460;19.034;2024-03-22T16:52:58;100482.97;;;16.32;43.87
57894;BME280;43710;47.460;19.034;2024-03-22T16:56:00;100493.16;;;16.35;43.53
